createdAt,value
2023-03-07T00:00:47.753Z,46.90
2023-03-07T00:03:16.918Z,45.30
2023-03-07T00:05:45.214Z,42.00
2023-03-07T00:08:13.252Z,44.00
2023-03-07T00:10:41.410Z,45.40
2023-03-07T00:13:09.472Z,51.70
2023-03-07T00:15:40.277Z,64.90
2023-03-07T00:18:08.304Z,53.90
2023-03-07T00:20:36.577Z,50.00
2023-03-07T00:23:04.577Z,42.00
2023-03-07T00:25:32.533Z,40.50
2023-03-07T00:28:00.552Z,39.30
2023-03-07T00:30:28.760Z,39.70
2023-03-07T00:32:56.784Z,32.70
2023-03-07T00:35:24.790Z,33.70
2023-03-07T00:37:52.835Z,27.80
2023-03-07T00:40:21.015Z,23.70
2023-03-07T00:42:48.960Z,28.10
2023-03-07T00:45:17.181Z,30.10
2023-03-07T00:47:45.210Z,24.80
2023-03-07T00:50:14.272Z,26.80
2023-03-07T00:52:42.502Z,29.80
2023-03-07T00:55:11.328Z,27.50
2023-03-07T00:57:40.003Z,26.30
2023-03-07T01:00:11.686Z,27.70
2023-03-07T01:02:39.878Z,26.70
2023-03-07T01:05:09.386Z,29.10
2023-03-07T01:07:40.139Z,28.80
2023-03-07T01:10:10.509Z,24.20
2023-03-07T01:12:41.393Z,31.20
2023-03-07T01:15:13.556Z,38.10
2023-03-07T01:17:48.885Z,31.20
2023-03-07T01:20:17.745Z,30.60
2023-03-07T01:22:46.017Z,30.90
2023-03-07T01:25:14.035Z,32.50
2023-03-07T01:27:42.145Z,30.30
2023-03-07T01:30:12.296Z,37.40
2023-03-07T01:32:40.333Z,33.10
2023-03-07T01:35:09.784Z,32.70
2023-03-07T01:37:38.084Z,29.00
2023-03-07T01:40:11.029Z,31.20
2023-03-07T01:42:39.006Z,30.70
2023-03-07T01:45:23.790Z,30.40
2023-03-07T01:47:51.735Z,25.80
2023-03-07T01:50:19.968Z,28.20
2023-03-07T01:52:50.977Z,28.40
2023-03-07T01:55:22.444Z,27.50
2023-03-07T01:57:54.980Z,26.50
2023-03-07T02:00:29.309Z,27.30
2023-03-07T02:03:03.579Z,30.30
2023-03-07T02:05:34.999Z,31.40
2023-03-07T02:08:04.194Z,26.30
2023-03-07T02:10:34.916Z,23.70
2023-03-07T02:13:03.504Z,28.50
2023-03-07T02:15:33.340Z,26.10
2023-03-07T02:18:02.426Z,29.40
2023-03-07T02:20:39.986Z,24.30
2023-03-07T02:23:18.071Z,36.70
2023-03-07T02:25:57.424Z,35.00
2023-03-07T02:28:26.815Z,33.50
2023-03-07T02:30:57.036Z,28.50
2023-03-07T02:33:26.077Z,33.30
2023-03-07T02:36:02.720Z,30.80
2023-03-07T02:38:36.007Z,32.00
2023-03-07T02:41:05.706Z,31.60
2023-03-07T02:43:34.771Z,30.20
2023-03-07T02:46:04.032Z,27.70
2023-03-07T02:48:32.074Z,27.30
2023-03-07T02:51:00.604Z,35.90
2023-03-07T02:53:28.756Z,31.80
2023-03-07T02:55:56.877Z,36.10
2023-03-07T02:58:25.122Z,45.40
2023-03-07T03:00:53.101Z,37.00
2023-03-07T03:03:21.401Z,42.50
2023-03-07T03:05:49.322Z,45.40
2023-03-07T03:08:17.347Z,51.30
2023-03-07T03:10:45.393Z,48.30
2023-03-07T03:13:14.015Z,53.70
2023-03-07T03:15:42.594Z,54.80
2023-03-07T03:18:11.128Z,56.30
2023-03-07T03:20:41.381Z,53.90
2023-03-07T03:23:09.562Z,63.00
2023-03-07T03:25:40.156Z,61.00
2023-03-07T03:28:09.458Z,66.30
2023-03-07T03:30:37.928Z,71.90
2023-03-07T03:33:06.599Z,76.80
2023-03-07T03:35:35.012Z,72.10
2023-03-07T03:38:03.201Z,70.20
2023-03-07T03:40:31.578Z,76.40
2023-03-07T03:43:00.093Z,79.30
2023-03-07T03:45:28.125Z,70.40
2023-03-07T03:47:56.114Z,63.90
2023-03-07T03:50:24.325Z,65.80
2023-03-07T03:52:52.530Z,63.10
2023-03-07T03:55:20.496Z,71.10
2023-03-07T03:57:48.444Z,69.40
2023-03-07T04:00:21.002Z,59.60
2023-03-07T04:02:49.767Z,61.10
2023-03-07T04:05:18.337Z,56.20
2023-03-07T04:07:46.814Z,59.90
2023-03-07T04:10:15.129Z,53.80
2023-03-07T04:12:43.089Z,59.60
2023-03-07T04:15:12.309Z,58.70
2023-03-07T04:17:40.306Z,59.10
2023-03-07T04:20:16.742Z,55.20
2023-03-07T04:22:45.036Z,49.10
2023-03-07T04:25:12.988Z,57.60
2023-03-07T04:27:41.371Z,54.40
2023-03-07T04:30:11.838Z,55.40
2023-03-07T04:32:41.828Z,54.40
2023-03-07T04:35:10.217Z,55.70
2023-03-07T04:37:38.127Z,58.40
2023-03-07T04:40:08.185Z,53.70
2023-03-07T04:42:36.331Z,42.50
2023-03-07T04:45:05.527Z,49.90
2023-03-07T04:47:33.537Z,56.00
2023-03-07T04:50:01.935Z,64.50
2023-03-07T04:52:31.305Z,58.30
2023-03-07T04:54:59.551Z,52.00
2023-03-07T04:57:27.649Z,60.40
2023-03-07T04:59:56.487Z,51.30
2023-03-07T05:02:24.661Z,62.90
2023-03-07T05:04:53.217Z,51.10
2023-03-07T05:07:21.402Z,55.70
2023-03-07T05:09:50.781Z,50.40
2023-03-07T05:12:19.322Z,44.20
2023-03-07T05:14:47.258Z,44.90
2023-03-07T05:17:15.463Z,38.30
2023-03-07T05:19:43.894Z,39.00
2023-03-07T05:22:11.987Z,38.90
2023-03-07T05:24:39.949Z,47.70
2023-03-07T05:27:10.538Z,39.00
2023-03-07T05:30:09.668Z,57.40
2023-03-07T05:32:51.482Z,67.40
2023-03-07T05:36:12.582Z,89.70
2023-03-07T05:38:40.771Z,82.20
2023-03-07T05:41:09.627Z,86.90
2023-03-07T05:43:37.894Z,76.20
2023-03-07T05:46:06.542Z,75.20
2023-03-07T05:48:34.899Z,74.80
2023-03-07T05:51:04.002Z,73.80
2023-03-07T05:53:32.716Z,60.30
2023-03-07T05:56:03.348Z,54.10
2023-03-07T05:58:42.447Z,45.50
2023-03-07T06:01:11.474Z,48.00
2023-03-07T06:03:40.310Z,49.40
2023-03-07T06:06:10.173Z,54.40
2023-03-07T06:08:38.533Z,60.80
2023-03-07T06:11:07.075Z,44.70
2023-03-07T06:13:37.509Z,48.20
2023-03-07T06:16:06.361Z,63.10
2023-03-07T06:18:35.220Z,56.80
2023-03-07T06:21:06.199Z,62.00
2023-03-07T06:23:37.561Z,60.70
2023-03-07T06:26:11.906Z,62.70
2023-03-07T06:28:41.709Z,46.00
2023-03-07T06:31:11.677Z,48.70
2023-03-07T06:33:40.762Z,29.40
2023-03-07T06:36:11.473Z,52.60
2023-03-07T06:38:40.254Z,43.70
2023-03-07T06:41:08.647Z,59.60
2023-03-07T06:43:37.658Z,55.00
2023-03-07T06:46:06.830Z,51.00
2023-03-07T06:48:38.164Z,62.10
2023-03-07T06:51:09.340Z,54.20
2023-03-07T06:53:38.459Z,64.80
2023-03-07T06:56:07.588Z,67.40
2023-03-07T06:58:38.309Z,48.80
2023-03-07T07:01:10.296Z,55.80
2023-03-07T07:03:38.470Z,61.00
2023-03-07T07:06:07.013Z,54.80
2023-03-07T07:08:35.169Z,55.90
2023-03-07T07:11:03.684Z,28.40
2023-03-07T07:13:32.317Z,41.10
2023-03-07T07:16:05.527Z,53.60
2023-03-07T07:18:35.333Z,46.00
2023-03-07T07:21:04.930Z,53.60
2023-03-07T07:23:33.272Z,53.20
2023-03-07T07:26:02.264Z,60.00
2023-03-07T07:28:30.861Z,51.60
2023-03-07T07:31:00.442Z,55.90
2023-03-07T07:33:30.296Z,49.20
2023-03-07T07:35:58.672Z,59.60
2023-03-07T07:38:27.108Z,56.80
2023-03-07T07:40:56.092Z,55.60
2023-03-07T07:43:25.919Z,55.30
2023-03-07T07:47:39.506Z,55.60
2023-03-07T07:50:10.101Z,46.40
2023-03-07T08:01:12.745Z,43.90
2023-03-07T08:03:40.967Z,59.40
2023-03-07T08:06:09.424Z,57.30
2023-03-07T08:08:38.317Z,55.10
2023-03-07T08:11:10.206Z,43.90
2023-03-07T08:13:38.382Z,57.30
2023-03-07T08:16:14.704Z,39.30
2023-03-07T08:18:43.556Z,40.80
2023-03-07T08:21:11.679Z,40.30
2023-03-07T08:23:39.861Z,32.30
2023-03-07T08:26:09.840Z,34.40
2023-03-07T08:28:41.975Z,33.90
2023-03-07T08:31:11.835Z,29.90
2023-03-07T08:33:40.324Z,27.90
2023-03-07T08:36:09.746Z,27.10
2023-03-07T08:38:38.207Z,33.70
2023-03-07T08:41:08.163Z,26.70
2023-03-07T08:43:38.652Z,28.00
2023-03-07T08:46:07.296Z,29.00
2023-03-07T08:48:35.501Z,28.70
2023-03-07T08:51:09.106Z,29.10
2023-03-07T08:53:38.532Z,31.20
2023-03-07T08:56:11.843Z,28.40
2023-03-07T08:58:40.412Z,26.90
2023-03-07T09:01:09.674Z,25.20
2023-03-07T09:03:37.853Z,28.60
2023-03-07T09:06:07.749Z,25.30
2023-03-07T09:09:25.509Z,25.40
2023-03-07T09:11:53.704Z,27.30
2023-03-07T09:14:24.472Z,29.60
2023-03-07T09:16:52.751Z,27.20
2023-03-07T09:19:23.118Z,24.40
2023-03-07T09:21:51.428Z,26.20
2023-03-07T09:24:19.635Z,23.40
2023-03-07T09:26:48.197Z,28.10
2023-03-07T09:29:17.121Z,28.50
2023-03-07T09:31:46.132Z,27.70
2023-03-07T09:34:14.182Z,26.90
2023-03-07T09:36:42.205Z,27.50
2023-03-07T09:39:13.906Z,28.80
2023-03-07T09:42:06.970Z,26.00
2023-03-07T09:44:55.671Z,31.00
2023-03-07T09:48:10.859Z,29.90
2023-03-07T09:50:48.246Z,30.60
2023-03-07T09:53:23.269Z,33.50
2023-03-07T09:55:54.567Z,35.70
2023-03-07T09:58:25.771Z,34.20
2023-03-07T10:00:57.661Z,29.80
2023-03-07T10:03:41.447Z,31.60
2023-03-07T10:06:14.646Z,33.50
2023-03-07T10:08:42.903Z,38.50
2023-03-07T10:11:24.524Z,32.20
2023-03-07T10:14:09.358Z,32.50
2023-03-07T10:16:45.674Z,33.20
2023-03-07T10:19:22.047Z,30.00
2023-03-07T10:21:59.419Z,36.30
2023-03-07T10:24:37.680Z,35.20
2023-03-07T10:27:08.073Z,37.50
2023-03-07T10:29:44.605Z,32.70
2023-03-07T10:32:20.910Z,45.60
2023-03-07T10:34:56.059Z,43.00
2023-03-07T10:37:35.269Z,41.20
2023-03-07T10:40:05.083Z,39.50
2023-03-07T10:42:39.108Z,43.00
2023-03-07T10:45:12.679Z,47.90
2023-03-07T10:47:41.255Z,42.20
2023-03-07T10:50:33.628Z,34.20
2023-03-07T10:53:08.008Z,33.40
2023-03-07T10:55:43.078Z,41.60
2023-03-07T11:00:44.119Z,35.40
2023-03-07T11:03:26.890Z,46.00
2023-03-07T11:06:27.119Z,37.20
2023-03-07T11:08:56.018Z,38.70
2023-03-07T11:11:26.673Z,42.40
2023-03-07T11:14:12.778Z,38.90
2023-03-07T11:16:47.881Z,42.40
2023-03-07T11:19:36.010Z,43.60
2023-03-07T11:22:16.014Z,39.70
2023-03-07T11:24:50.564Z,41.80
2023-03-07T11:27:24.123Z,41.30
2023-03-07T11:30:18.776Z,45.90
2023-03-07T11:32:53.635Z,42.20
2023-03-07T11:35:24.530Z,42.90
2023-03-07T11:38:04.037Z,39.60
2023-03-07T11:40:39.712Z,51.00
2023-03-07T11:43:18.985Z,52.60
2023-03-07T11:45:54.322Z,47.70
2023-03-07T11:48:41.627Z,40.20
2023-03-07T11:51:29.183Z,37.80
2023-03-07T11:54:07.656Z,44.90
2023-03-07T11:56:40.555Z,42.60
2023-03-07T11:59:34.805Z,43.30
2023-03-07T12:02:07.453Z,49.40
2023-03-07T12:05:08.360Z,56.10
2023-03-07T12:07:59.526Z,36.30
2023-03-07T12:10:45.078Z,41.00
2023-03-07T12:15:59.542Z,31.30
2023-03-07T12:18:56.112Z,34.70
2023-03-07T12:21:42.488Z,43.00
2023-03-07T12:24:19.974Z,40.70
2023-03-07T12:27:04.848Z,36.00
2023-03-07T12:29:38.035Z,32.60
2023-03-07T12:32:13.052Z,29.60
2023-03-07T12:34:51.814Z,30.90
2023-03-07T12:37:25.814Z,39.70
2023-03-07T12:39:59.333Z,26.40
2023-03-07T12:42:37.012Z,30.30
2023-03-07T12:45:11.817Z,26.50
2023-03-07T12:47:54.762Z,27.60
2023-03-07T12:50:35.679Z,25.60
2023-03-07T12:53:11.022Z,32.60
2023-03-07T12:55:43.940Z,30.80
2023-03-07T12:58:18.046Z,30.70
2023-03-07T13:00:50.200Z,30.50
2023-03-07T13:03:32.406Z,30.10
2023-03-07T13:06:02.630Z,25.90
2023-03-07T13:08:31.640Z,32.50
2023-03-07T13:10:59.949Z,31.90
2023-03-07T13:13:53.002Z,31.60
2023-03-07T13:16:40.164Z,31.40
2023-03-07T13:19:44.789Z,30.70
2023-03-07T13:23:00.607Z,31.10
2023-03-07T13:25:56.542Z,22.10
2023-03-07T13:28:41.302Z,28.50
2023-03-07T13:31:54.943Z,21.90
2023-03-07T13:34:50.647Z,26.10
2023-03-07T13:37:52.104Z,30.60
2023-03-07T13:40:57.866Z,24.50
2023-03-07T13:44:02.487Z,29.60
2023-03-07T13:46:53.590Z,30.00
2023-03-07T13:49:42.565Z,30.10
2023-03-07T13:52:43.488Z,23.80
2023-03-07T13:55:28.873Z,29.00
2023-03-07T13:58:04.234Z,23.80
2023-03-07T14:00:37.524Z,26.20
2023-03-07T14:04:10.836Z,26.10
2023-03-07T14:06:44.324Z,23.80
2023-03-07T14:09:17.861Z,25.40
2023-03-07T14:11:54.936Z,25.80
2023-03-07T14:14:46.380Z,21.70
2023-03-07T14:17:26.901Z,21.40
2023-03-07T14:20:10.737Z,29.80
2023-03-07T14:22:55.907Z,23.40
2023-03-07T14:25:26.685Z,24.00
2023-03-07T14:27:57.740Z,33.00
2023-03-07T14:30:41.217Z,28.00
2023-03-07T14:33:21.565Z,26.00
2023-03-07T14:35:50.611Z,26.70
2023-03-07T14:38:22.365Z,25.00
2023-03-07T14:41:15.793Z,23.60
2023-03-07T14:43:54.558Z,23.80
2023-03-07T14:46:36.365Z,23.30
2023-03-07T14:49:14.761Z,22.90
2023-03-07T14:51:45.078Z,28.00
2023-03-07T14:54:17.886Z,25.60
2023-03-07T14:56:50.636Z,22.30
2023-03-07T14:59:28.152Z,21.50
2023-03-07T15:02:00.522Z,19.90
2023-03-07T15:04:31.140Z,20.70
2023-03-07T15:07:01.557Z,19.50
2023-03-07T15:09:30.563Z,20.10
2023-03-07T15:12:04.656Z,23.10
2023-03-07T15:14:44.654Z,14.90
2023-03-07T15:17:16.728Z,19.30
2023-03-07T15:19:48.304Z,16.30
2023-03-07T15:22:24.189Z,18.10
2023-03-07T15:24:53.404Z,19.30
2023-03-07T15:27:25.094Z,18.40
2023-03-07T15:29:54.990Z,20.70
2023-03-07T15:32:35.476Z,17.60
2023-03-07T15:35:15.021Z,22.40
2023-03-07T15:37:55.044Z,18.10
2023-03-07T15:40:29.313Z,14.70
2023-03-07T15:43:13.392Z,24.10
2023-03-07T15:45:43.804Z,20.50
2023-03-07T15:48:24.829Z,19.20
2023-03-07T15:50:56.137Z,19.50
2023-03-07T15:53:28.893Z,23.10
2023-03-07T15:55:59.163Z,18.90
2023-03-07T15:58:28.842Z,19.50
2023-03-07T16:01:18.023Z,16.30
2023-03-07T16:03:51.978Z,19.70
2023-03-07T16:06:43.397Z,20.40
2023-03-07T16:09:18.628Z,21.60
2023-03-07T16:14:22.516Z,18.20
2023-03-07T16:16:54.771Z,16.60
2023-03-07T16:19:23.516Z,17.40
2023-03-07T16:24:35.012Z,16.80
2023-03-07T16:27:04.117Z,17.50
2023-03-07T16:29:32.538Z,23.20
2023-03-07T16:32:01.716Z,18.90
2023-03-07T16:34:31.224Z,20.50
2023-03-07T16:36:59.608Z,19.10
2023-03-07T16:39:30.333Z,20.10
2023-03-07T16:41:59.990Z,19.60
2023-03-07T16:44:28.318Z,19.00
2023-03-07T16:47:04.292Z,21.50
2023-03-07T16:49:32.515Z,20.90
2023-03-07T16:52:05.991Z,21.90
2023-03-07T16:54:35.056Z,22.30
2023-03-07T16:57:05.635Z,18.70
2023-03-07T16:59:37.109Z,20.30
2023-03-07T17:02:15.324Z,21.00
2023-03-07T17:04:44.511Z,25.10
2023-03-07T17:07:17.769Z,18.50
2023-03-07T17:09:46.744Z,19.20
2023-03-07T17:12:16.232Z,24.40
2023-03-07T17:14:46.963Z,22.50
2023-03-07T17:17:19.700Z,19.50
2023-03-07T17:19:47.898Z,20.10
2023-03-07T17:22:16.202Z,19.90
2023-03-07T17:24:44.287Z,19.30
2023-03-07T17:27:12.406Z,23.00
2023-03-07T17:29:42.812Z,18.50
2023-03-07T17:32:11.107Z,17.60
2023-03-07T17:34:39.979Z,19.30
2023-03-07T17:37:10.684Z,25.30
2023-03-07T17:39:39.701Z,22.90
2023-03-07T17:42:08.707Z,23.20
2023-03-07T17:44:37.380Z,19.00
2023-03-07T17:47:06.303Z,21.00
2023-03-07T17:49:36.479Z,25.70
2023-03-07T17:52:06.848Z,26.50
2023-03-07T17:54:35.460Z,25.40
2023-03-07T17:57:04.343Z,20.20
2023-03-07T17:59:35.668Z,21.30
2023-03-07T18:02:06.315Z,25.40
2023-03-07T18:04:35.817Z,20.30
2023-03-07T18:07:04.879Z,26.50
2023-03-07T18:09:34.045Z,16.80
2023-03-07T18:12:02.508Z,19.30
2023-03-07T18:14:31.517Z,23.90
2023-03-07T18:16:59.994Z,25.70
2023-03-07T18:19:28.393Z,21.70
2023-03-07T18:21:57.156Z,23.10
2023-03-07T18:24:29.440Z,20.30
2023-03-07T18:26:59.072Z,19.00
2023-03-07T18:29:28.527Z,19.80
2023-03-07T18:31:57.016Z,22.60
2023-03-07T18:34:25.347Z,21.80
2023-03-07T18:36:54.063Z,28.40
2023-03-07T18:39:23.020Z,23.90
2023-03-07T18:41:51.460Z,17.90
2023-03-07T18:44:19.754Z,21.40
2023-03-07T18:46:48.157Z,18.20
2023-03-07T18:49:17.268Z,22.40
2023-03-07T18:51:45.654Z,23.00
2023-03-07T18:54:16.487Z,18.10
2023-03-07T18:56:49.271Z,24.30
2023-03-07T18:59:18.422Z,23.30
2023-03-07T19:01:49.464Z,19.10
2023-03-07T19:04:19.205Z,18.50
2023-03-07T19:06:48.049Z,21.40
2023-03-07T19:09:18.391Z,21.90
2023-03-07T19:11:46.986Z,19.90
2023-03-07T19:14:16.829Z,20.50
2023-03-07T19:16:45.596Z,16.50
2023-03-07T19:19:13.900Z,17.90
2023-03-07T19:21:42.140Z,22.10
2023-03-07T19:24:12.047Z,24.50
2023-03-07T19:26:42.158Z,17.60
2023-03-07T19:29:12.444Z,19.60
2023-03-07T19:31:43.081Z,20.90
2023-03-07T19:34:11.747Z,24.30
2023-03-07T19:36:41.290Z,16.00
2023-03-07T19:39:14.561Z,16.60
2023-03-07T19:41:47.848Z,19.70
2023-03-07T19:44:16.684Z,16.70
2023-03-07T19:46:45.903Z,20.70
2023-03-07T19:49:15.048Z,19.90
2023-03-07T19:51:43.392Z,25.40
2023-03-07T19:54:13.911Z,19.50
2023-03-07T19:56:43.917Z,21.60
2023-03-07T19:59:12.595Z,19.60
2023-03-07T20:01:40.837Z,22.90
2023-03-07T20:04:10.668Z,17.40
2023-03-07T20:06:41.765Z,17.80
2023-03-07T20:09:12.307Z,18.00
2023-03-07T20:11:42.755Z,25.00
2023-03-07T20:14:11.756Z,17.10
2023-03-07T20:16:40.660Z,21.20
2023-03-07T20:19:12.850Z,16.30
2023-03-07T20:21:42.788Z,20.60
2023-03-07T20:24:12.206Z,17.20
2023-03-07T20:26:40.628Z,19.70
2023-03-07T20:29:09.743Z,18.90
2023-03-07T20:31:39.293Z,19.70
2023-03-07T20:34:10.627Z,23.80
2023-03-07T20:36:39.160Z,23.50
2023-03-07T20:39:12.559Z,15.20
2023-03-07T20:41:42.064Z,17.10
2023-03-07T20:44:13.452Z,14.40
2023-03-07T20:46:41.786Z,13.50
2023-03-07T20:49:12.947Z,13.80
2023-03-07T20:51:42.787Z,14.70
2023-03-07T20:54:13.523Z,14.10
2023-03-07T20:56:42.742Z,11.50
2023-03-07T20:59:13.661Z,12.50
2023-03-07T21:01:42.260Z,17.90
2023-03-07T21:04:12.800Z,12.60
2023-03-07T21:06:42.830Z,13.90
2023-03-07T21:09:14.142Z,18.80
2023-03-07T21:11:44.729Z,12.80
2023-03-07T21:14:13.262Z,12.30
2023-03-07T21:16:42.465Z,10.20
2023-03-07T21:19:11.262Z,13.80
2023-03-07T21:21:39.724Z,13.40
2023-03-07T21:24:11.314Z,10.50
2023-03-07T21:26:39.809Z,14.10
2023-03-07T21:29:08.298Z,13.30
2023-03-07T21:31:38.039Z,10.80
2023-03-07T21:34:08.615Z,12.60
2023-03-07T21:36:36.974Z,12.30
2023-03-07T21:39:07.223Z,13.80
2023-03-07T21:41:35.701Z,12.50
2023-03-07T21:44:03.921Z,14.20
2023-03-07T21:46:32.015Z,11.00
2023-03-07T21:49:02.376Z,13.40
2023-03-07T21:51:30.475Z,13.40
2023-03-07T21:53:58.909Z,11.30
2023-03-07T21:56:27.109Z,9.40
2023-03-07T21:58:55.105Z,11.20
2023-03-07T22:01:25.164Z,12.00
2023-03-07T22:03:54.392Z,16.70
2023-03-07T22:06:23.264Z,13.20
2023-03-07T22:08:51.201Z,13.20
2023-03-07T22:11:19.388Z,11.20
2023-03-07T22:13:47.474Z,15.30
2023-03-07T22:16:17.504Z,14.00
2023-03-07T22:18:45.959Z,11.40
2023-03-07T22:21:16.534Z,12.20
2023-03-07T22:23:45.227Z,12.90
2023-03-07T22:26:13.767Z,8.80
2023-03-07T22:28:42.268Z,9.50
2023-03-07T22:31:12.143Z,6.80
2023-03-07T22:33:40.899Z,10.10
2023-03-07T22:36:13.190Z,6.50
2023-03-07T22:38:42.205Z,4.70
2023-03-07T22:41:12.880Z,4.60
2023-03-07T22:43:43.640Z,3.80
2023-03-07T22:46:11.969Z,3.70
2023-03-07T22:48:40.563Z,2.60
2023-03-07T22:51:13.405Z,3.90
2023-03-07T22:53:41.551Z,2.50
2023-03-07T22:56:14.840Z,3.10
2023-03-07T22:58:42.891Z,2.60
2023-03-07T23:01:15.839Z,2.80
2023-03-07T23:03:43.923Z,3.00
2023-03-07T23:06:12.546Z,3.20
2023-03-07T23:08:43.338Z,3.30
2023-03-07T23:11:12.075Z,2.20
2023-03-07T23:13:40.198Z,2.90
2023-03-07T23:16:11.230Z,2.30
2023-03-07T23:18:40.669Z,4.20
2023-03-07T23:21:10.848Z,2.60
2023-03-07T23:23:39.330Z,5.60
2023-03-07T23:26:07.607Z,5.00
2023-03-07T23:28:35.772Z,3.80
2023-03-07T23:31:03.989Z,3.80
2023-03-07T23:33:32.148Z,5.60
2023-03-07T23:36:00.636Z,3.90
2023-03-07T23:38:28.752Z,2.50
2023-03-07T23:40:58.874Z,3.60
2023-03-07T23:43:27.017Z,3.80
2023-03-07T23:45:55.241Z,4.50
2023-03-07T23:48:23.362Z,4.10
2023-03-07T23:50:51.434Z,3.60
2023-03-07T23:53:19.577Z,2.30
2023-03-07T23:55:47.868Z,3.90
2023-03-07T23:58:16.102Z,2.20
